Time;durP1;ratioP1;P1;durP2;ratioP2;P2;SDS_P1;SDS_P2;PMS_P1;PMS_P2;Temp;Humidity;BMP_temperature;BMP_pressure;BME280_temperature;BME280_humidity;BME280_pressure;Samples;Min_cycle;Max_cycle;Signal;HPM_P1;HPM_P2
2021/08/12 00:01:33;;;;;;;10.05;4.38;;;;;;;;;;5073078;28;20190;-81
2021/08/12 00:04:00;;;;;;;10.55;4.40;;;;;;;;;;5072844;28;20257;-82
2021/08/12 00:06:27;;;;;;;13.05;6.00;;;;;;;;;;5073222;28;20191;-82
2021/08/12 00:08:54;;;;;;;10.65;6.10;;;;;;;;;;5074227;28;20238;-82
2021/08/12 00:11:21;;;;;;;11.48;5.90;;;;;;;;;;5072676;28;20209;-82
2021/08/12 00:13:48;;;;;;;9.35;6.20;;;;;;;;;;5074504;28;20210;-82
2021/08/12 00:16:14;;;;;;;13.35;6.10;;;;;;;;;;5072257;28;20238;-82
2021/08/12 00:18:42;;;;;;;10.70;5.78;;;;;;;;;;5074126;28;20731;-82
2021/08/12 00:21:09;;;;;;;7.15;5.70;;;;;;;;;;5072854;28;20296;-82
2021/08/12 00:23:36;;;;;;;8.75;5.20;;;;;;;;;;5072420;28;20234;-82
2021/08/12 00:26:02;;;;;;;10.75;5.47;;;;;;;;;;5072552;28;20227;-82
2021/08/12 00:28:29;;;;;;;9.10;5.22;;;;;;;;;;5072676;28;20187;-83
2021/08/12 00:30:56;;;;;;;6.70;4.90;;;;;;;;;;5072055;28;20194;-82
2021/08/12 00:33:22;;;;;;;9.60;4.97;;;;;;;;;;5072285;28;20285;-82
2021/08/12 00:35:51;;;;;;;6.20;4.35;;;;;;;;;;5072482;28;20558;-82
2021/08/12 00:38:18;;;;;;;6.80;4.38;;;;;;;;;;5072071;28;20234;-82
2021/08/12 00:40:45;;;;;;;7.63;4.75;;;;;;;;;;5072246;28;20233;-82
2021/08/12 00:43:11;;;;;;;6.45;4.28;;;;;;;;;;5106024;28;20182;-82
2021/08/12 00:45:38;;;;;;;9.23;4.80;;;;;;;;;;5073519;28;20211;-82
2021/08/12 00:48:05;;;;;;;6.78;4.60;;;;;;;;;;5071732;28;20226;-82
2021/08/12 00:50:32;;;;;;;5.05;4.30;;;;;;;;;;5071919;28;20246;-82
2021/08/12 00:53:00;;;;;;;6.85;4.55;;;;;;;;;;5071848;28;20260;-82
2021/08/12 00:55:26;;;;;;;5.47;4.32;;;;;;;;;;5073350;28;20249;-81
2021/08/12 00:57:53;;;;;;;6.30;4.38;;;;;;;;;;5071662;28;20206;-81
2021/08/12 01:00:20;;;;;;;9.95;4.40;;;;;;;;;;5070897;28;20318;-82
2021/08/12 01:02:46;;;;;;;9.05;4.40;;;;;;;;;;5071619;28;20261;-83
2021/08/12 01:05:13;;;;;;;7.90;4.55;;;;;;;;;;5073054;28;20230;-82
2021/08/12 01:07:43;;;;;;;6.13;4.60;;;;;;;;;;5073397;28;20222;-82
2021/08/12 01:10:15;;;;;;;12.07;4.22;;;;;;;;;;5071718;28;20206;-82
2021/08/12 01:12:47;;;;;;;8.63;4.13;;;;;;;;;;5071468;28;20202;-82
2021/08/12 01:15:21;;;;;;;8.30;4.72;;;;;;;;;;5073035;28;20685;-82
2021/08/12 01:17:53;;;;;;;5.00;4.50;;;;;;;;;;5071397;28;20203;-82
2021/08/12 01:20:38;;;;;;;6.72;4.63;;;;;;;;;;5073395;28;20261;-82
2021/08/12 01:23:06;;;;;;;7.40;4.57;;;;;;;;;;5071369;28;20202;-82
2021/08/12 01:25:34;;;;;;;4.78;4.32;;;;;;;;;;5072750;28;20210;-83
2021/08/12 01:28:03;;;;;;;5.35;4.28;;;;;;;;;;5105347;28;20601;-82
2021/08/12 01:30:33;;;;;;;5.07;4.30;;;;;;;;;;5071415;28;20199;-83
2021/08/12 01:33:04;;;;;;;5.03;4.50;;;;;;;;;;5072696;28;20225;-82
2021/08/12 01:35:33;;;;;;;5.43;4.65;;;;;;;;;;5073280;28;20673;-82
2021/08/12 01:38:01;;;;;;;5.80;4.53;;;;;;;;;;5071020;28;20202;-82
2021/08/12 01:40:29;;;;;;;5.53;4.57;;;;;;;;;;5070754;28;20292;-82
2021/08/12 01:42:57;;;;;;;6.63;4.63;;;;;;;;;;5072425;28;20635;-82
2021/08/12 01:45:24;;;;;;;6.40;4.65;;;;;;;;;;5070912;28;20743;-83
2021/08/12 01:47:51;;;;;;;5.88;3.97;;;;;;;;;;5071012;28;20225;-82
2021/08/12 01:50:17;;;;;;;8.18;4.28;;;;;;;;;;5070998;28;20299;-82
2021/08/12 01:52:47;;;;;;;4.60;4.18;;;;;;;;;;5070696;28;20237;-83
2021/08/12 01:55:14;;;;;;;7.28;4.57;;;;;;;;;;5070997;28;20226;-83
2021/08/12 01:57:42;;;;;;;5.35;4.60;;;;;;;;;;5070777;28;20195;-82
2021/08/12 02:00:10;;;;;;;5.35;4.50;;;;;;;;;;5070686;28;20247;-82
2021/08/12 02:02:37;;;;;;;13.40;4.82;;;;;;;;;;5071854;28;20274;-82
2021/08/12 02:05:05;;;;;;;6.30;4.30;;;;;;;;;;5072005;28;20211;-82
2021/08/12 02:07:32;;;;;;;6.18;4.22;;;;;;;;;;5070998;28;20214;-82
2021/08/12 02:10:00;;;;;;;6.50;4.82;;;;;;;;;;5071669;28;20230;-81
2021/08/12 02:12:27;;;;;;;5.07;4.15;;;;;;;;;;5069746;28;20205;-82
2021/08/12 02:14:53;;;;;;;5.63;4.32;;;;;;;;;;5071878;28;20704;-82
2021/08/12 02:17:20;;;;;;;6.77;4.23;;;;;;;;;;5070115;28;20206;-82
2021/08/12 02:19:47;;;;;;;4.43;3.97;;;;;;;;;;5071955;28;20720;-82
2021/08/12 02:22:17;;;;;;;5.37;4.80;;;;;;;;;;5070430;28;20258;-82
2021/08/12 02:24:48;;;;;;;5.90;4.43;;;;;;;;;;5071619;28;20249;-82
2021/08/12 02:27:20;;;;;;;5.05;4.22;;;;;;;;;;5070350;28;20273;-82
2021/08/12 02:29:48;;;;;;;4.80;4.30;;;;;;;;;;5071588;28;20219;-82
2021/08/12 02:32:15;;;;;;;8.77;4.72;;;;;;;;;;5071748;28;20230;-82
2021/08/12 02:34:42;;;;;;;5.23;4.60;;;;;;;;;;5070237;28;20662;-83
2021/08/12 02:37:11;;;;;;;7.45;4.68;;;;;;;;;;5071546;28;20670;-83
2021/08/12 02:39:39;;;;;;;5.18;4.65;;;;;;;;;;5071545;28;20210;-83
2021/08/12 02:42:07;;;;;;;4.97;4.50;;;;;;;;;;5069810;28;20456;-82
2021/08/12 02:44:35;;;;;;;10.55;4.65;;;;;;;;;;5070068;28;20252;-82
2021/08/12 02:47:05;;;;;;;5.30;4.28;;;;;;;;;;5103621;28;20222;-82
2021/08/12 02:49:32;;;;;;;9.27;4.67;;;;;;;;;;5069946;28;20252;-82
2021/08/12 02:51:59;;;;;;;5.03;4.63;;;;;;;;;;5071379;28;20288;-82
2021/08/12 02:54:27;;;;;;;5.17;4.40;;;;;;;;;;5071214;28;20241;-82
2021/08/12 02:56:54;;;;;;;8.23;4.97;;;;;;;;;;5071505;28;20238;-82
2021/08/12 02:59:21;;;;;;;6.00;4.63;;;;;;;;;;5069611;28;20263;-82
2021/08/12 03:01:50;;;;;;;6.15;4.68;;;;;;;;;;5069568;28;20721;-82
2021/08/12 03:04:18;;;;;;;5.37;4.57;;;;;;;;;;5070970;28;20721;-82
2021/08/12 03:06:46;;;;;;;7.47;4.72;;;;;;;;;;5069925;28;20237;-82
2021/08/12 03:09:14;;;;;;;4.63;4.10;;;;;;;;;;5103766;28;20198;-82
2021/08/12 03:11:41;;;;;;;5.15;4.57;;;;;;;;;;5071672;28;20234;-82
2021/08/12 03:14:08;;;;;;;7.07;4.88;;;;;;;;;;5070225;28;20242;-82
2021/08/12 03:16:35;;;;;;;5.30;4.90;;;;;;;;;;5071366;28;20733;-82
2021/08/12 03:19:04;;;;;;;5.53;4.35;;;;;;;;;;5069755;28;20252;-82
2021/08/12 03:21:31;;;;;;;5.50;5.00;;;;;;;;;;5071580;28;20262;-82
2021/08/12 03:24:01;;;;;;;8.47;4.73;;;;;;;;;;5074581;28;20639;-82
2021/08/12 03:26:28;;;;;;;7.03;5.20;;;;;;;;;;5073870;28;20267;-82
2021/08/12 03:28:55;;;;;;;8.53;5.00;;;;;;;;;;5075269;28;20238;-82
2021/08/12 03:31:21;;;;;;;8.03;5.23;;;;;;;;;;5074816;28;20691;-82
2021/08/12 03:33:48;;;;;;;8.07;5.17;;;;;;;;;;5073472;28;20740;-82
2021/08/12 03:36:16;;;;;;;7.00;5.13;;;;;;;;;;5073373;28;20735;-82
2021/08/12 03:38:43;;;;;;;7.90;4.90;;;;;;;;;;5074692;28;20238;-82
2021/08/12 03:41:09;;;;;;;6.03;4.78;;;;;;;;;;5074601;28;20223;-82
2021/08/12 03:43:36;;;;;;;6.20;4.93;;;;;;;;;;5074900;28;20238;-83
2021/08/12 03:46:03;;;;;;;5.47;4.60;;;;;;;;;;5074811;28;20245;-82
2021/08/12 03:48:29;;;;;;;5.33;4.83;;;;;;;;;;5074852;28;20606;-83
2021/08/12 03:50:56;;;;;;;4.53;4.13;;;;;;;;;;5074650;28;20254;-82
2021/08/12 03:53:24;;;;;;;5.57;4.53;;;;;;;;;;5073618;28;20187;-84
2021/08/12 03:55:53;;;;;;;5.47;4.60;;;;;;;;;;5073455;28;20199;-84
2021/08/12 03:58:21;;;;;;;6.57;4.80;;;;;;;;;;5074591;28;20245;-86
2021/08/12 04:00:47;;;;;;;5.00;4.43;;;;;;;;;;5073066;28;20558;-85
2021/08/12 04:03:14;;;;;;;6.77;5.00;;;;;;;;;;5074511;28;20646;-82
2021/08/12 04:05:41;;;;;;;6.30;4.60;;;;;;;;;;5073383;28;20203;-83
2021/08/12 04:08:07;;;;;;;5.67;5.10;;;;;;;;;;5073304;28;20206;-83
2021/08/12 04:10:35;;;;;;;5.30;4.53;;;;;;;;;;5073036;28;20198;-83
2021/08/12 04:13:02;;;;;;;5.10;4.60;;;;;;;;;;5074562;28;20585;-87
2021/08/12 04:15:29;;;;;;;5.17;4.50;;;;;;;;;;5073116;28;20203;-85
2021/08/12 04:17:55;;;;;;;5.57;5.07;;;;;;;;;;5073258;28;20191;-83
2021/08/12 04:20:22;;;;;;;8.90;5.00;;;;;;;;;;5074162;28;20198;-82
2021/08/12 04:22:49;;;;;;;10.27;4.60;;;;;;;;;;5074129;28;20682;-84
2021/08/12 04:25:15;;;;;;;5.20;4.23;;;;;;;;;;5072670;28;20685;-83
2021/08/12 04:27:43;;;;;;;5.27;4.73;;;;;;;;;;5073942;28;20190;-88
2021/08/12 04:30:11;;;;;;;5.70;4.77;;;;;;;;;;5075178;28;20203;-86
2021/08/12 04:32:37;;;;;;;6.47;4.90;;;;;;;;;;5077447;28;20186;-87
2021/08/12 04:35:04;;;;;;;6.17;4.97;;;;;;;;;;5076494;28;20187;-86
2021/08/12 04:37:36;;;;;;;6.40;4.53;;;;;;;;;;5077541;28;20213;-87
2021/08/12 04:40:03;;;;;;;8.93;4.93;;;;;;;;;;5079260;28;20452;-90
2021/08/12 04:42:30;;;;;;;6.50;4.93;;;;;;;;;;5076710;28;20686;-88
2021/08/12 04:44:58;;;;;;;5.47;4.93;;;;;;;;;;5075128;28;20217;-88
2021/08/12 04:47:25;;;;;;;5.43;4.90;;;;;;;;;;5075639;28;20589;-84
2021/08/12 04:49:51;;;;;;;6.33;4.30;;;;;;;;;;5072149;28;20250;-84
2021/08/12 04:52:18;;;;;;;4.80;4.40;;;;;;;;;;5072231;28;20592;-85
2021/08/12 04:54:45;;;;;;;5.43;5.00;;;;;;;;;;5072395;28;20595;-85
2021/08/12 04:57:11;;;;;;;6.53;4.90;;;;;;;;;;5073292;28;20852;-84
2021/08/12 04:59:38;;;;;;;5.40;5.00;;;;;;;;;;5073766;28;20705;-82
2021/08/12 05:02:06;;;;;;;5.57;5.07;;;;;;;;;;5072297;28;20264;-82
2021/08/12 05:04:33;;;;;;;12.83;5.20;;;;;;;;;;5071621;28;20254;-82
2021/08/12 05:06:59;;;;;;;9.27;5.03;;;;;;;;;;5072054;28;20252;-85
2021/08/12 05:09:26;;;;;;;5.57;5.07;;;;;;;;;;5071883;28;20210;-83
2021/08/12 05:11:53;;;;;;;7.83;5.17;;;;;;;;;;5071952;28;20252;-84
2021/08/12 05:14:19;;;;;;;8.67;4.73;;;;;;;;;;5071655;28;20195;-81
2021/08/12 05:16:46;;;;;;;8.53;5.07;;;;;;;;;;5071291;28;20214;-81
2021/08/12 05:19:14;;;;;;;7.73;5.07;;;;;;;;;;5071134;28;20218;-82
2021/08/12 05:21:41;;;;;;;10.47;5.20;;;;;;;;;;5072719;28;20191;-81
2021/08/12 05:24:07;;;;;;;8.20;5.20;;;;;;;;;;5070813;28;20187;-83
2021/08/12 05:26:34;;;;;;;5.87;5.27;;;;;;;;;;5073142;28;20708;-84
2021/08/12 05:29:00;;;;;;;9.80;5.63;;;;;;;;;;5072417;28;20242;-81
2021/08/12 05:31:27;;;;;;;5.73;5.13;;;;;;;;;;5071250;28;20191;-81
2021/08/12 05:33:54;;;;;;;7.17;5.17;;;;;;;;;;5072750;28;20218;-83
2021/08/12 05:36:22;;;;;;;8.77;5.50;;;;;;;;;;5071431;28;20198;-83
2021/08/12 05:38:48;;;;;;;6.83;5.70;;;;;;;;;;5072560;28;20210;-83
2021/08/12 05:41:15;;;;;;;6.00;5.40;;;;;;;;;;5071384;28;20198;-83
2021/08/12 05:43:42;;;;;;;9.13;5.67;;;;;;;;;;5071133;28;20230;-83
2021/08/12 05:46:08;;;;;;;8.67;6.03;;;;;;;;;;5070486;28;20210;-83
2021/08/12 05:48:35;;;;;;;8.23;5.70;;;;;;;;;;5070690;28;20202;-83
2021/08/12 05:51:02;;;;;;;6.47;5.90;;;;;;;;;;5071113;28;20230;-84
2021/08/12 05:53:30;;;;;;;10.67;6.40;;;;;;;;;;5071398;28;20260;-83
2021/08/12 05:55:57;;;;;;;7.77;5.50;;;;;;;;;;5072157;28;20246;-84
2021/08/12 05:58:24;;;;;;;9.70;5.40;;;;;;;;;;5070731;28;20199;-84
2021/08/12 06:00:50;;;;;;;14.07;6.00;;;;;;;;;;5070797;28;20218;-82
2021/08/12 06:03:17;;;;;;;8.97;6.37;;;;;;;;;;5070488;28;20308;-83
2021/08/12 06:05:44;;;;;;;6.53;5.83;;;;;;;;;;5071266;28;20747;-84
2021/08/12 06:08:11;;;;;;;7.38;5.90;;;;;;;;;;5070906;28;20198;-83
2021/08/12 06:10:41;;;;;;;10.53;5.13;;;;;;;;;;5072058;28;20245;-84
2021/08/12 06:13:07;;;;;;;6.97;5.50;;;;;;;;;;5070667;28;20241;-83
2021/08/12 06:15:35;;;;;;;12.43;5.77;;;;;;;;;;5070865;28;20194;-83
2021/08/12 06:18:05;;;;;;;9.37;5.90;;;;;;;;;;5071697;28;20211;-83
2021/08/12 06:20:32;;;;;;;7.77;6.00;;;;;;;;;;5071823;28;20206;-83
2021/08/12 06:23:00;;;;;;;10.63;7.15;;;;;;;;;;5069890;28;20258;-82
2021/08/12 06:25:27;;;;;;;7.47;5.70;;;;;;;;;;5070598;28;20671;-83
2021/08/12 06:27:55;;;;;;;11.47;6.17;;;;;;;;;;5071979;28;20209;-82
2021/08/12 06:30:21;;;;;;;9.80;6.10;;;;;;;;;;5071201;28;20237;-83
2021/08/12 06:32:48;;;;;;;10.43;6.38;;;;;;;;;;5070607;28;20651;-82
2021/08/12 06:35:15;;;;;;;9.90;7.25;;;;;;;;;;5070026;28;20229;-83
2021/08/12 06:37:42;;;;;;;7.65;6.65;;;;;;;;;;5070181;28;20686;-82
2021/08/12 06:40:09;;;;;;;15.77;6.45;;;;;;;;;;5070246;28;20226;-83
2021/08/12 06:42:36;;;;;;;9.07;6.07;;;;;;;;;;5071384;28;20288;-84
2021/08/12 06:45:05;;;;;;;9.27;6.60;;;;;;;;;;5072030;28;20234;-83
2021/08/12 06:47:31;;;;;;;13.50;6.63;;;;;;;;;;5071112;28;20221;-82
2021/08/12 06:49:58;;;;;;;8.63;6.20;;;;;;;;;;5070611;28;20255;-83
2021/08/12 06:52:25;;;;;;;17.80;7.40;;;;;;;;;;5070806;28;20218;-84
2021/08/12 06:54:51;;;;;;;7.95;6.45;;;;;;;;;;5070984;28;20190;-83
2021/08/12 06:57:18;;;;;;;9.10;7.22;;;;;;;;;;5071708;28;20256;-83
2021/08/12 06:59:45;;;;;;;9.63;7.03;;;;;;;;;;5075279;28;20190;-83
2021/08/12 07:02:13;;;;;;;8.32;6.75;;;;;;;;;;5075027;28;20216;-83
2021/08/12 07:04:39;;;;;;;7.50;6.50;;;;;;;;;;5076564;28;20213;-82
2021/08/12 07:07:06;;;;;;;8.68;6.90;;;;;;;;;;5075066;28;20267;-82
2021/08/12 07:09:34;;;;;;;14.15;7.25;;;;;;;;;;5075069;28;20280;-82
2021/08/12 07:12:01;;;;;;;10.52;7.20;;;;;;;;;;5074600;28;20187;-82
2021/08/12 07:14:27;;;;;;;17.92;7.72;;;;;;;;;;5074915;28;20191;-82
2021/08/12 07:16:54;;;;;;;13.55;6.80;;;;;;;;;;5076330;28;20199;-82
2021/08/12 07:19:22;;;;;;;9.23;6.93;;;;;;;;;;5074611;28;20195;-81
2021/08/12 07:21:51;;;;;;;9.13;6.60;;;;;;;;;;5074027;28;20202;-81
2021/08/12 07:24:18;;;;;;;9.98;6.65;;;;;;;;;;5074175;28;20271;-80
2021/08/12 07:26:47;;;;;;;10.82;6.35;;;;;;;;;;5074234;28;20562;-81
2021/08/12 07:29:13;;;;;;;9.65;6.10;;;;;;;;;;5074289;28;20599;-81
2021/08/12 07:31:40;;;;;;;10.40;6.13;;;;;;;;;;5075706;28;20210;-82
2021/08/12 07:34:07;;;;;;;7.43;5.32;;;;;;;;;;5074210;28;20212;-82
2021/08/12 07:36:37;;;;;;;7.10;5.35;;;;;;;;;;5073700;28;20263;-81
2021/08/12 07:39:04;;;;;;;6.68;5.05;;;;;;;;;;5074315;28;20555;-82
2021/08/12 07:41:31;;;;;;;7.78;5.70;;;;;;;;;;5074018;28;20204;-82
2021/08/12 07:43:58;;;;;;;10.82;6.07;;;;;;;;;;5074092;28;20234;-82
2021/08/12 07:46:25;;;;;;;8.57;6.15;;;;;;;;;;5075166;28;20588;-81
2021/08/12 07:48:51;;;;;;;10.40;6.38;;;;;;;;;;5075332;28;20187;-82
2021/08/12 07:51:18;;;;;;;6.65;5.95;;;;;;;;;;5073956;28;20252;-81
2021/08/12 07:53:47;;;;;;;13.25;6.13;;;;;;;;;;5073879;28;20217;-82
2021/08/12 07:56:14;;;;;;;9.55;5.95;;;;;;;;;;5073816;28;20190;-81
2021/08/12 07:58:40;;;;;;;10.50;6.43;;;;;;;;;;5075441;28;20221;-81
2021/08/12 08:01:07;;;;;;;9.68;5.82;;;;;;;;;;5075123;28;20213;-81
2021/08/12 08:03:34;;;;;;;9.68;6.22;;;;;;;;;;5074965;28;20269;-81
2021/08/12 08:06:01;;;;;;;8.10;5.85;;;;;;;;;;5075092;28;20171;-82
2021/08/12 08:08:28;;;;;;;8.68;6.43;;;;;;;;;;5074967;28;20249;-82
2021/08/12 08:10:57;;;;;;;7.68;5.85;;;;;;;;;;5073902;28;20721;-82
2021/08/12 08:13:24;;;;;;;6.85;6.15;;;;;;;;;;5075015;28;20211;-82
2021/08/12 08:15:51;;;;;;;12.68;7.30;;;;;;;;;;5074893;28;20218;-81
2021/08/12 08:18:18;;;;;;;9.65;6.78;;;;;;;;;;5107646;28;20198;-81
2021/08/12 08:20:44;;;;;;;7.95;6.55;;;;;;;;;;5074849;28;20210;-83
2021/08/12 08:23:12;;;;;;;9.70;6.65;;;;;;;;;;5074696;28;20265;-81
2021/08/12 08:25:39;;;;;;;8.70;6.65;;;;;;;;;;5107368;28;20655;-81
2021/08/12 08:28:07;;;;;;;7.38;6.68;;;;;;;;;;5074832;28;20201;-82
2021/08/12 08:30:35;;;;;;;12.63;7.03;;;;;;;;;;5073553;28;20190;-82
2021/08/12 08:33:05;;;;;;;12.85;6.82;;;;;;;;;;5073089;28;20248;-81
2021/08/12 08:35:32;;;;;;;10.90;6.22;;;;;;;;;;5073436;28;20732;-82
2021/08/12 08:37:59;;;;;;;11.32;5.90;;;;;;;;;;5107198;28;20276;-82
2021/08/12 08:40:29;;;;;;;10.23;6.43;;;;;;;;;;5074777;28;20709;-82
2021/08/12 08:42:57;;;;;;;7.88;6.07;;;;;;;;;;5074250;28;20207;-81
2021/08/12 08:45:26;;;;;;;9.75;6.88;;;;;;;;;;5074340;28;20245;-82
2021/08/12 08:47:53;;;;;;;8.75;6.45;;;;;;;;;;5072756;28;20194;-82
2021/08/12 08:50:21;;;;;;;12.18;5.95;;;;;;;;;;5106732;28;20272;-81
2021/08/12 08:52:51;;;;;;;8.27;6.22;;;;;;;;;;5072879;28;20654;-81
2021/08/12 08:55:21;;;;;;;9.85;5.78;;;;;;;;;;5074172;28;20175;-81
2021/08/12 08:57:48;;;;;;;8.88;6.30;;;;;;;;;;5074246;28;20661;-81
2021/08/12 09:00:16;;;;;;;9.60;6.40;;;;;;;;;;5072846;28;20735;-82
2021/08/12 09:02:45;;;;;;;13.30;6.80;;;;;;;;;;5072505;28;20660;-80
2021/08/12 09:05:11;;;;;;;8.80;5.78;;;;;;;;;;5072828;28;20202;-81
2021/08/12 09:07:38;;;;;;;9.77;6.78;;;;;;;;;;5072544;28;20198;-82
2021/08/12 09:10:05;;;;;;;8.75;6.25;;;;;;;;;;5073635;28;20206;-82
2021/08/12 09:12:32;;;;;;;8.52;6.00;;;;;;;;;;5071621;28;20240;-82
2021/08/12 09:15:03;;;;;;;9.23;6.38;;;;;;;;;;5072098;28;20195;-82
2021/08/12 09:17:30;;;;;;;16.90;6.03;;;;;;;;;;5071900;28;20198;-81
2021/08/12 09:20:00;;;;;;;8.10;6.00;;;;;;;;;;5072721;28;20179;-80
2021/08/12 09:22:27;;;;;;;7.90;6.20;;;;;;;;;;5073547;28;20190;-81
2021/08/12 09:24:54;;;;;;;9.50;5.93;;;;;;;;;;5071901;28;20234;-81
2021/08/12 09:27:21;;;;;;;6.15;4.95;;;;;;;;;;5105967;28;20199;-82
2021/08/12 09:29:48;;;;;;;6.03;4.80;;;;;;;;;;5071885;28;20554;-83
2021/08/12 09:32:16;;;;;;;8.60;5.68;;;;;;;;;;5071806;28;20194;-82
2021/08/12 09:34:44;;;;;;;9.05;4.93;;;;;;;;;;5073183;28;20203;-82
2021/08/12 09:37:12;;;;;;;7.85;5.72;;;;;;;;;;5073124;28;20629;-81
2021/08/12 09:39:39;;;;;;;8.75;5.25;;;;;;;;;;5071905;28;20241;-82
2021/08/12 09:42:06;;;;;;;8.20;5.72;;;;;;;;;;5071909;28;20198;-82
2021/08/12 09:44:41;;;;;;;5.35;4.82;;;;;;;;;;5072604;28;20233;-83
2021/08/12 09:47:09;;;;;;;7.43;5.05;;;;;;;;;;5071525;28;20228;-82
2021/08/12 09:49:46;;;;;;;6.65;4.82;;;;;;;;;;5071092;28;20202;-82
2021/08/12 09:52:22;;;;;;;7.90;4.50;;;;;;;;;;5071682;28;20216;-82
2021/08/12 09:54:56;;;;;;;6.88;4.93;;;;;;;;;;5072676;28;20233;-82
2021/08/12 09:57:22;;;;;;;13.82;5.05;;;;;;;;;;5070703;28;20749;-82
2021/08/12 09:59:49;;;;;;;8.30;4.82;;;;;;;;;;5071376;28;20284;-81
2021/08/12 10:02:17;;;;;;;4.93;4.45;;;;;;;;;;5072493;28;20238;-82
2021/08/12 10:04:43;;;;;;;4.78;4.38;;;;;;;;;;5072154;28;20599;-80
2021/08/12 10:07:32;;;;;;;6.85;4.35;;;;;;;;;;5071116;28;20202;-79
2021/08/12 10:10:08;;;;;;;4.80;4.30;;;;;;;;;;5072536;28;20207;-80
2021/08/12 10:12:34;;;;;;;8.10;4.32;;;;;;;;;;5072173;28;20233;-80
2021/08/12 10:15:01;;;;;;;4.63;4.22;;;;;;;;;;5072656;28;20182;-82
2021/08/12 10:17:28;;;;;;;7.10;4.32;;;;;;;;;;5071835;28;20241;-82
2021/08/12 10:19:56;;;;;;;6.00;3.95;;;;;;;;;;5070326;28;20203;-83
2021/08/12 10:22:23;;;;;;;8.88;4.43;;;;;;;;;;5071947;28;20207;-82
2021/08/12 10:24:50;;;;;;;7.68;5.10;;;;;;;;;;5070229;28;20762;-82
2021/08/12 10:27:19;;;;;;;7.10;3.88;;;;;;;;;;5104474;28;20202;-83
2021/08/12 10:29:46;;;;;;;4.85;4.30;;;;;;;;;;5070269;28;20248;-82
2021/08/12 10:32:15;;;;;;;5.38;4.07;;;;;;;;;;5070359;28;20743;-83
2021/08/12 10:34:42;;;;;;;6.53;4.93;;;;;;;;;;5071693;28;20249;-81
2021/08/12 10:37:10;;;;;;;5.60;4.15;;;;;;;;;;5071582;28;20206;-81
2021/08/12 10:39:37;;;;;;;4.80;4.25;;;;;;;;;;5071771;28;20245;-83
2021/08/12 10:42:06;;;;;;;4.97;4.10;;;;;;;;;;5071966;28;20225;-82
2021/08/12 10:44:35;;;;;;;5.38;4.40;;;;;;;;;;5070247;28;20252;-81
2021/08/12 10:47:01;;;;;;;4.60;4.10;;;;;;;;;;5104502;28;20202;-82
2021/08/12 10:49:28;;;;;;;4.22;3.90;;;;;;;;;;5070215;28;20260;-81
2021/08/12 10:52:00;;;;;;;6.25;4.13;;;;;;;;;;5070344;28;20719;-82
2021/08/12 10:54:27;;;;;;;7.75;4.20;;;;;;;;;;5070347;28;20194;-83
2021/08/12 10:57:08;;;;;;;5.70;4.05;;;;;;;;;;5071985;28;20246;-82
2021/08/12 10:59:36;;;;;;;5.25;4.18;;;;;;;;;;5069807;28;20226;-83
2021/08/12 11:02:26;;;;;;;7.60;4.22;;;;;;;;;;5071463;28;20238;-83
2021/08/12 11:04:53;;;;;;;6.70;3.97;;;;;;;;;;5070049;28;20307;-82
2021/08/12 11:07:35;;;;;;;7.72;3.97;;;;;;;;;;5071526;28;20237;-82
2021/08/12 11:10:01;;;;;;;7.55;4.35;;;;;;;;;;5070832;28;20617;-82
2021/08/12 11:12:44;;;;;;;4.32;3.95;;;;;;;;;;5069874;28;20276;-82
2021/08/12 11:15:12;;;;;;;4.57;4.03;;;;;;;;;;5071486;28;20253;-84
2021/08/12 11:17:55;;;;;;;5.18;4.13;;;;;;;;;;5070181;28;20186;-87
2021/08/12 11:20:32;;;;;;;4.68;4.13;;;;;;;;;;5069898;28;20240;-84
2021/08/12 11:23:13;;;;;;;5.25;4.13;;;;;;;;;;5071476;28;20211;-84
2021/08/12 11:25:56;;;;;;;8.50;4.05;;;;;;;;;;5069316;28;20238;-83
2021/08/12 11:28:40;;;;;;;4.38;3.92;;;;;;;;;;5071459;28;20210;-84
2021/08/12 11:31:08;;;;;;;4.25;3.85;;;;;;;;;;5068555;28;20202;-84
2021/08/12 11:33:45;;;;;;;4.70;3.83;;;;;;;;;;5070016;28;20224;-82
2021/08/12 11:36:22;;;;;;;6.95;3.47;;;;;;;;;;5103787;28;20650;-82
2021/08/12 11:38:50;;;;;;;4.38;3.70;;;;;;;;;;5071294;28;20206;-83
2021/08/12 11:41:17;;;;;;;4.00;3.28;;;;;;;;;;5069656;28;20225;-85
2021/08/12 11:43:44;;;;;;;5.47;3.85;;;;;;;;;;5072557;28;20250;-82
2021/08/12 11:46:13;;;;;;;4.60;3.90;;;;;;;;;;5074642;28;20251;-83
2021/08/12 11:48:40;;;;;;;5.22;3.90;;;;;;;;;;5073453;28;20202;-84
2021/08/12 11:51:07;;;;;;;3.83;3.53;;;;;;;;;;5073639;28;20222;-82
2021/08/12 11:53:38;;;;;;;4.07;3.78;;;;;;;;;;5073573;28;20206;-84
2021/08/12 11:56:09;;;;;;;4.95;3.70;;;;;;;;;;5072968;28;20307;-83
2021/08/12 11:58:35;;;;;;;5.97;4.00;;;;;;;;;;5074909;28;20229;-84
2021/08/12 12:01:09;;;;;;;5.57;3.60;;;;;;;;;;5072847;28;20202;-84
2021/08/12 12:03:37;;;;;;;5.65;3.80;;;;;;;;;;5074187;28;20253;-85
2021/08/12 12:06:04;;;;;;;4.55;3.70;;;;;;;;;;5073022;28;20253;-81
2021/08/12 12:08:31;;;;;;;6.20;3.90;;;;;;;;;;5072985;28;20202;-83
2021/08/12 12:11:07;;;;;;;4.82;3.65;;;;;;;;;;5073231;28;20199;-83
2021/08/12 12:13:34;;;;;;;5.85;3.80;;;;;;;;;;5107103;28;20237;-84
2021/08/12 12:16:01;;;;;;;4.78;3.33;;;;;;;;;;5072702;28;20678;-84
2021/08/12 12:18:31;;;;;;;3.72;3.40;;;;;;;;;;5074243;28;20214;-83
2021/08/12 12:21:02;;;;;;;4.30;3.78;;;;;;;;;;5072511;28;20562;-81
2021/08/12 12:23:29;;;;;;;4.65;4.25;;;;;;;;;;5074635;28;20675;-81
2021/08/12 12:25:55;;;;;;;4.40;4.05;;;;;;;;;;5074282;28;20730;-83
2021/08/12 12:28:22;;;;;;;3.90;3.58;;;;;;;;;;5072303;28;20234;-82
2021/08/12 12:30:49;;;;;;;6.68;3.85;;;;;;;;;;5072914;28;20221;-83
2021/08/12 12:33:16;;;;;;;4.75;3.97;;;;;;;;;;5072755;28;20662;-82
2021/08/12 12:35:44;;;;;;;4.80;3.88;;;;;;;;;;5074123;28;20241;-82
2021/08/12 12:38:16;;;;;;;4.88;4.13;;;;;;;;;;5072570;28;20652;-82
2021/08/12 12:40:44;;;;;;;4.30;3.90;;;;;;;;;;5072547;28;20208;-82
2021/08/12 12:43:10;;;;;;;8.63;4.10;;;;;;;;;;5072386;28;20210;-83
2021/08/12 12:45:47;;;;;;;4.05;3.72;;;;;;;;;;5072048;28;20267;-82
2021/08/12 12:48:14;;;;;;;4.70;4.15;;;;;;;;;;5106428;28;20739;-81
2021/08/12 12:50:42;;;;;;;8.07;3.92;;;;;;;;;;5071693;28;20372;-82
2021/08/12 12:53:08;;;;;;;5.53;4.00;;;;;;;;;;5071982;28;20206;-81
2021/08/12 12:55:37;;;;;;;4.07;3.78;;;;;;;;;;5072295;28;20253;-85
2021/08/12 12:58:14;;;;;;;4.28;3.83;;;;;;;;;;5073537;28;20674;-84
2021/08/12 13:00:41;;;;;;;5.22;3.70;;;;;;;;;;5073529;28;20206;-86
2021/08/12 13:03:07;;;;;;;4.78;4.03;;;;;;;;;;5071951;28;20229;-83
2021/08/12 13:05:47;;;;;;;7.40;4.00;;;;;;;;;;5073508;28;20520;-82
2021/08/12 13:08:14;;;;;;;7.30;3.80;;;;;;;;;;5071896;28;20213;-78
2021/08/12 13:10:42;;;;;;;4.15;3.83;;;;;;;;;;5073451;28;20210;-80
2021/08/12 13:13:09;;;;;;;4.57;4.18;;;;;;;;;;5071331;28;20650;-80
2021/08/12 13:15:37;;;;;;;3.90;3.60;;;;;;;;;;5071371;28;20202;-81
2021/08/12 13:18:04;;;;;;;3.90;3.60;;;;;;;;;;5072575;28;20690;-79
2021/08/12 13:20:40;;;;;;;3.92;3.63;;;;;;;;;;5072877;28;20218;-80
2021/08/12 13:23:08;;;;;;;9.07;4.40;;;;;;;;;;5071227;28;20213;-81
2021/08/12 13:25:34;;;;;;;3.80;3.50;;;;;;;;;;5071294;28;20706;-79
2021/08/12 13:28:03;;;;;;;4.40;4.00;;;;;;;;;;5070971;28;20222;-81
2021/08/12 13:30:31;;;;;;;4.05;3.65;;;;;;;;;;5072135;28;20238;-80
2021/08/12 13:32:57;;;;;;;4.03;3.72;;;;;;;;;;5070672;28;20248;-79
2021/08/12 13:35:24;;;;;;;4.40;4.00;;;;;;;;;;5072432;28;20206;-81
2021/08/12 13:37:51;;;;;;;4.20;3.90;;;;;;;;;;5072405;28;20678;-78
2021/08/12 13:40:18;;;;;;;8.02;4.15;;;;;;;;;;5072648;28;20206;-80
2021/08/12 13:42:46;;;;;;;3.60;3.40;;;;;;;;;;5071943;28;20210;-80
2021/08/12 13:45:14;;;;;;;5.82;3.85;;;;;;;;;;5071847;28;20230;-77
2021/08/12 13:47:41;;;;;;;3.58;3.28;;;;;;;;;;5070422;28;20247;-81
2021/08/12 13:50:07;;;;;;;3.95;3.65;;;;;;;;;;5070586;28;20617;-80
2021/08/12 13:52:34;;;;;;;4.03;3.72;;;;;;;;;;5070770;28;20572;-79
2021/08/12 13:55:01;;;;;;;3.80;3.50;;;;;;;;;;5072208;28;20257;-80
2021/08/12 13:57:27;;;;;;;3.67;3.47;;;;;;;;;;5070405;28;20582;-79
2021/08/12 13:59:54;;;;;;;5.18;3.88;;;;;;;;;;5071851;28;20220;-80
2021/08/12 14:02:22;;;;;;;3.53;3.33;;;;;;;;;;5071344;28;20234;-78
2021/08/12 14:04:49;;;;;;;4.53;3.72;;;;;;;;;;5071789;28;20215;-81
2021/08/12 14:07:15;;;;;;;5.22;3.70;;;;;;;;;;5069883;28;20246;-81
2021/08/12 14:09:42;;;;;;;4.35;3.65;;;;;;;;;;5070593;28;20398;-78
2021/08/12 14:12:09;;;;;;;4.20;3.90;;;;;;;;;;5070126;28;20268;-79
2021/08/12 14:14:35;;;;;;;3.90;3.60;;;;;;;;;;5071772;28;20245;-78
2021/08/12 14:17:02;;;;;;;4.25;3.90;;;;;;;;;;5069919;28;20187;-79
2021/08/12 14:19:30;;;;;;;5.35;3.60;;;;;;;;;;5071617;28;20679;-81
2021/08/12 14:21:57;;;;;;;4.13;3.83;;;;;;;;;;5071297;28;20234;-78
2021/08/12 14:24:23;;;;;;;4.65;3.90;;;;;;;;;;5071603;28;20214;-80
2021/08/12 14:26:50;;;;;;;4.07;3.67;;;;;;;;;;5071337;28;20724;-79
2021/08/12 14:29:17;;;;;;;4.05;3.75;;;;;;;;;;5070130;28;20206;-80
2021/08/12 14:31:43;;;;;;;5.32;3.92;;;;;;;;;;5072080;28;20751;-82
2021/08/12 14:34:10;;;;;;;4.45;4.05;;;;;;;;;;5071811;28;20288;-80
2021/08/12 14:36:39;;;;;;;7.53;3.92;;;;;;;;;;5070117;28;20218;-80
2021/08/12 14:39:08;;;;;;;4.25;3.72;;;;;;;;;;5071735;28;20210;-80
2021/08/12 14:41:35;;;;;;;4.50;4.10;;;;;;;;;;5071722;28;20179;-80
2021/08/12 14:44:01;;;;;;;4.20;3.80;;;;;;;;;;5071493;28;20210;-80
2021/08/12 14:46:28;;;;;;;4.43;4.10;;;;;;;;;;5070092;28;20304;-79